Arce5 — FGH3325 — position and weather

sailwx.info

Track history (hours):
 
Tides and Currents Weather Stations Pressure Air Temp Water Temp Dewpoint Dewpoint Depression Visibility Wind Speed Wind Dir Waves Ship Positions

Arce5

Last reported at 2016-Jul-16 04:18 UTC. Time now 2016-Aug-27 09:52 UTC.
Position N 47°35' W 003°02'.
Warning: this ship's position is 42 days out of date.

Length 9 m.

Type: . MMSI: 227084610.

Date/timePositionNaut miles runAvg speedWind from/ knotsBaromVisibWave heightAir tempDewpointWater temp
2016-Jul-16 04:18N 47°35' W 003°02'0 0.0
2016-Jul-16 01:27N 47°35' W 003°02'0 0.0
2016-Jul-16 00:33N 47°35' W 003°02'0 0.0
2016-Jul-15 23:27N 47°35' W 003°02'0 0.0
2016-Jul-15 22:30N 47°35' W 003°02'0 0.0
2016-Jul-15 21:33N 47°35' W 003°02'0 0.0
2016-Jul-15 20:09N 47°35' W 003°02'0 0.0
2016-Jul-15 19:30N 47°35' W 003°02'0 0.0
2016-Jul-15 18:24N 47°35' W 003°02'0 0.0
2016-Jul-15 17:30N 47°35' W 003°02'0 0.0
2016-Jul-15 16:30N 47°35' W 003°02'0 0.0
2016-Jul-15 15:33N 47°35' W 003°02'0 0.0
2016-Jul-15 11:21N 47°35' W 003°02'6 7.1
2016-Jul-15 10:33N 47°32' W 002°55'  
2016-Jul-06 20:32N 47°32' W 002°54'2 1.8
2016-Jul-06 19:33N 47°34' W 002°53'0 0.0
2016-Jul-06 18:33N 47°34' W 002°53'0 0.0
2016-Jul-06 17:33N 47°34' W 002°53'1 1.4
2016-Jul-06 16:33N 47°33' W 002°54'0 0.0
2016-Jul-06 15:31N 47°33' W 002°54'0 0.0
2016-Jul-06 14:19N 47°33' W 002°54'  
Track history (hours):
 
Tides and Currents Weather Stations Pressure Air Temp Water Temp Dewpoint Dewpoint Depression Visibility Wind Speed Wind Dir Waves Ship Positions

Arce5

Last reported at 2016-Jul-16 04:18 UTC. Time now 2016-Aug-27 09:52 UTC.
Position N 47°35' W 003°02'.
Warning: this ship's position is 42 days out of date.

Length 9 m.

Type: . MMSI: 227084610.

Date/timePositionNaut miles runAvg speedWind from/ knotsBaromVisibWave heightAir tempDewpointWater temp
2016-Jul-16 04:18N 47°35' W 003°02'0 0.0
2016-Jul-16 01:27N 47°35' W 003°02'0 0.0
2016-Jul-16 00:33N 47°35' W 003°02'0 0.0
2016-Jul-15 23:27N 47°35' W 003°02'0 0.0
2016-Jul-15 22:30N 47°35' W 003°02'0 0.0
2016-Jul-15 21:33N 47°35' W 003°02'0 0.0
2016-Jul-15 20:09N 47°35' W 003°02'0 0.0
2016-Jul-15 19:30N 47°35' W 003°02'0 0.0
2016-Jul-15 18:24N 47°35' W 003°02'0 0.0
2016-Jul-15 17:30N 47°35' W 003°02'0 0.0
2016-Jul-15 16:30N 47°35' W 003°02'0 0.0
2016-Jul-15 15:33N 47°35' W 003°02'0 0.0
2016-Jul-15 11:21N 47°35' W 003°02'6 7.1
2016-Jul-15 10:33N 47°32' W 002°55'  
2016-Jul-06 20:32N 47°32' W 002°54'2 1.8
2016-Jul-06 19:33N 47°34' W 002°53'0 0.0
2016-Jul-06 18:33N 47°34' W 002°53'0 0.0
2016-Jul-06 17:33N 47°34' W 002°53'1 1.4
2016-Jul-06 16:33N 47°33' W 002°54'0 0.0
2016-Jul-06 15:31N 47°33' W 002°54'0 0.0
2016-Jul-06 14:19N 47°33' W 002°54'  

Dump ship's entire track history